Time;durP1;ratioP1;P1;durP2;ratioP2;P2;SDS_P1;SDS_P2;PMS_P1;PMS_P2;Temp;Humidity;BMP_temperature;BMP_pressure;BME280_temperature;BME280_humidity;BME280_pressure;Samples;Min_cycle;Max_cycle;Signal;HPM_P1;HPM_P2
2023/09/22 00:00:32;;;;;;;7.22;4.38;;;;;;;20.24;87.83;94711.03;5167690;27;20295;-45
2023/09/22 00:02:59;;;;;;;6.20;4.50;;;;;;;20.27;87.41;94734.81;5137377;27;20200;-45
2023/09/22 00:05:25;;;;;;;6.00;4.38;;;;;;;20.35;87.32;94727.84;5132459;27;20184;-46
2023/09/22 00:07:52;;;;;;;6.95;4.32;;;;;;;20.37;87.29;94729.22;5151518;27;20192;-45
2023/09/22 00:10:19;;;;;;;4.65;4.20;;;;;;;20.39;87.64;94692.69;5160995;27;20619;-46
2023/09/22 00:12:46;;;;;;;8.40;4.72;;;;;;;20.31;90.42;94706.66;5151533;27;20279;-44
2023/09/22 00:15:15;;;;;;;6.63;4.47;;;;;;;20.34;90.31;94693.28;5151368;27;20552;-43
2023/09/22 00:17:42;;;;;;;9.25;4.60;;;;;;;20.33;90.51;94689.06;5152118;27;20184;-45
2023/09/22 00:20:13;;;;;;;16.67;5.00;;;;;;;20.28;93.00;94713.03;5152552;27;20194;-44
2023/09/22 00:22:40;;;;;;;11.43;5.57;;;;;;;20.24;94.60;94711.03;5167460;27;20266;-44
2023/09/22 00:25:09;;;;;;;10.73;5.13;;;;;;;20.23;96.56;94714.63;5172218;27;20266;-46
2023/09/22 00:27:35;;;;;;;11.85;5.18;;;;;;;20.17;97.91;94707.63;5172332;27;20230;-45
2023/09/22 00:30:04;;;;;;;12.68;5.80;;;;;;;20.08;98.33;94699.22;5172401;27;20193;-46
2023/09/22 00:32:32;;;;;;;6.63;4.55;;;;;;;20.03;98.76;94702.41;5172230;27;20218;-45
2023/09/22 00:34:59;;;;;;;6.30;4.65;;;;;;;20.00;99.48;94710.59;5165347;27;20256;-44
2023/09/22 00:37:25;;;;;;;7.05;4.57;;;;;;;20.00;100.00;94718.38;5157005;27;20236;-44
2023/09/22 00:39:52;;;;;;;10.10;4.50;;;;;;;19.96;99.62;94724.16;5168701;27;20192;-45
2023/09/22 00:42:19;;;;;;;5.70;4.82;;;;;;;20.00;100.00;94723.56;5151589;27;20184;-45
2023/09/22 00:44:46;;;;;;;9.07;5.40;;;;;;;19.94;99.45;94732.13;5151216;27;20195;-44
2023/09/22 00:47:14;;;;;;;11.63;5.55;;;;;;;19.73;99.58;94693.31;5159753;27;20202;-45
2023/09/22 00:49:42;;;;;;;5.68;4.30;;;;;;;19.89;99.05;94676.59;5171491;27;20194;-44
2023/09/22 00:52:10;;;;;;;10.82;5.30;;;;;;;19.85;99.68;94655.41;5172093;27;20329;-44
2023/09/22 00:54:37;;;;;;;9.88;6.70;;;;;;;19.84;99.96;94661.59;5171862;27;20672;-44
2023/09/22 00:57:04;;;;;;;11.10;6.22;;;;;;;19.85;100.00;94673.59;5171893;27;20654;-44
2023/09/22 00:59:31;;;;;;;9.05;6.35;;;;;;;19.85;100.00;94701.34;5172001;27;20183;-46
2023/09/22 01:01:58;;;;;;;10.80;6.80;;;;;;;19.83;100.00;94701.53;5171697;27;20194;-45
2023/09/22 01:04:27;;;;;;;12.10;7.07;;;;;;;19.79;100.00;94693.34;5172244;27;20182;-44
2023/09/22 01:06:56;;;;;;;12.57;7.60;;;;;;;19.82;100.00;94696.53;5171557;27;20269;-45
2023/09/22 01:09:23;;;;;;;8.55;7.53;;;;;;;19.78;100.00;94704.72;5172018;27;20222;-45
2023/09/22 01:11:50;;;;;;;10.38;7.50;;;;;;;19.64;100.00;94697.84;5171528;27;20218;-46
2023/09/22 01:14:16;;;;;;;13.90;7.55;;;;;;;19.55;100.00;94693.81;5163591;27;20194;-44
2023/09/22 01:16:44;;;;;;;9.83;7.23;;;;;;;19.51;100.00;94693.38;5150989;27;20184;-44
2023/09/22 01:19:14;;;;;;;15.83;7.77;;;;;;;19.49;100.00;94690.19;5150864;27;20257;-45
2023/09/22 01:21:42;;;;;;;12.68;7.88;;;;;;;19.45;100.00;94699.34;5150776;27;20310;-44
2023/09/22 01:24:10;;;;;;;11.53;7.27;;;;;;;19.47;100.00;94706.94;5150775;27;20218;-45
2023/09/22 01:26:38;;;;;;;13.55;7.40;;;;;;;19.50;100.00;94714.34;5158763;27;20215;-46
2023/09/22 01:29:05;;;;;;;12.02;6.82;;;;;;;19.51;100.00;94721.13;5167897;27;20215;-45
2023/09/22 01:31:32;;;;;;;13.50;8.10;;;;;;;19.45;100.00;94714.13;5175059;27;20206;-45
2023/09/22 01:33:59;;;;;;;10.48;6.95;;;;;;;19.44;100.00;94715.91;5176003;27;20229;-45
2023/09/22 01:36:26;;;;;;;27.73;8.18;;;;;;;19.42;100.00;94712.69;5175631;27;20197;-45
2023/09/22 01:38:54;;;;;;;14.93;8.18;;;;;;;19.40;100.00;94698.34;5175598;27;20214;-45
2023/09/22 01:41:21;;;;;;;18.00;7.32;;;;;;;19.37;100.00;94694.31;5174907;27;20199;-45
2023/09/22 01:43:47;;;;;;;9.80;7.47;;;;;;;19.37;100.00;94696.09;5162200;27;20190;-44
2023/09/22 01:46:14;;;;;;;9.73;7.47;;;;;;;19.34;100.00;94699.06;5154598;27;20204;-44
2023/09/22 01:48:41;;;;;;;13.17;8.23;;;;;;;19.30;100.00;94685.72;5154514;27;20191;-44
2023/09/22 01:51:08;;;;;;;14.13;8.03;;;;;;;19.27;100.00;94671.34;5154336;27;20192;-46
2023/09/22 01:53:35;;;;;;;9.90;6.90;;;;;;;19.25;100.00;94641.38;5156423;27;20251;-46
2023/09/22 01:56:03;;;;;;;14.60;7.90;;;;;;;19.24;100.00;94642.38;5175438;27;20191;-45
2023/09/22 01:58:29;;;;;;;9.00;6.53;;;;;;;19.21;100.00;94648.78;5162517;27;20517;-43
2023/09/22 02:00:58;;;;;;;10.77;6.83;;;;;;;19.22;100.00;94660.75;5154423;27;20643;-44
2023/09/22 02:03:25;;;;;;;10.83;6.50;;;;;;;19.22;100.00;94663.34;5154509;27;20256;-43
2023/09/22 02:05:52;;;;;;;12.97;6.90;;;;;;;19.18;100.00;94656.13;5154229;27;20240;-45
2023/09/22 02:08:18;;;;;;;9.93;7.77;;;;;;;19.12;100.00;94660.28;5154408;27;20199;-45
2023/09/22 02:10:45;;;;;;;9.20;6.77;;;;;;;19.06;100.00;94663.63;5154449;27;20519;-45
2023/09/22 02:13:13;;;;;;;10.57;6.87;;;;;;;19.02;100.00;94654.63;5153998;27;20211;-46
2023/09/22 02:15:40;;;;;;;10.33;6.37;;;;;;;18.98;100.00;94650.81;5154473;27;20188;-46
2023/09/22 02:18:07;;;;;;;10.07;7.37;;;;;;;18.98;100.00;94658.59;5153974;27;20215;-45
2023/09/22 02:20:35;;;;;;;10.60;6.80;;;;;;;18.96;100.00;94658.78;5153844;27;20670;-45
2023/09/22 02:23:02;;;;;;;11.43;7.18;;;;;;;18.93;100.00;94658.38;5153872;27;20263;-46
2023/09/22 02:25:29;;;;;;;12.98;8.15;;;;;;;18.97;100.00;94664.78;5153504;27;20655;-44
2023/09/22 02:27:59;;;;;;;17.10;7.47;;;;;;;18.92;100.00;94662.75;5154287;27;20176;-44
2023/09/22 02:30:27;;;;;;;14.20;7.50;;;;;;;18.88;100.00;94656.34;5153780;27;20203;-45
2023/09/22 02:32:54;;;;;;;9.33;7.37;;;;;;;18.89;100.00;94654.56;5153598;27;20668;-44
2023/09/22 02:35:22;;;;;;;11.37;6.90;;;;;;;18.88;100.00;94665.91;5153520;27;20184;-45
2023/09/22 02:37:49;;;;;;;16.00;7.50;;;;;;;18.85;100.00;94666.28;5153581;27;20647;-45
2023/09/22 02:40:15;;;;;;;11.13;7.30;;;;;;;18.79;100.00;94667.84;5153514;27;20625;-46
2023/09/22 02:42:43;;;;;;;10.63;7.47;;;;;;;18.77;100.00;94673.19;5153749;27;20286;-45
2023/09/22 02:45:10;;;;;;;11.40;7.70;;;;;;;18.75;100.00;94671.81;5153550;27;20214;-45
2023/09/22 02:47:40;;;;;;;11.23;7.23;;;;;;;18.70;100.00;94674.97;5153541;27;20188;-44
2023/09/22 02:50:10;;;;;;;15.60;8.27;;;;;;;18.70;100.00;94676.75;5154912;27;20180;-44
2023/09/22 02:52:38;;;;;;;10.17;7.17;;;;;;;18.66;100.00;94675.50;5174283;27;20210;-45
2023/09/22 02:55:07;;;;;;;11.53;7.23;;;;;;;18.62;100.00;94680.25;5173909;27;20187;-44
2023/09/22 02:57:34;;;;;;;7.17;6.47;;;;;;;18.59;100.00;94685.78;5174404;27;20206;-43
2023/09/22 03:00:02;;;;;;;8.83;7.03;;;;;;;18.55;100.00;94687.16;5166037;27;20184;-45
2023/09/22 03:02:29;;;;;;;10.03;7.30;;;;;;;18.52;100.00;94683.16;5153271;27;20188;-44
2023/09/22 03:04:58;;;;;;;9.30;7.43;;;;;;;18.54;100.00;94691.53;5153731;27;20525;-45
2023/09/22 03:07:24;;;;;;;11.50;7.77;;;;;;;18.51;100.00;94688.50;5153064;27;20247;-45
2023/09/22 03:09:52;;;;;;;10.10;7.40;;;;;;;18.45;100.00;94686.69;5153107;27;20290;-46
2023/09/22 03:12:19;;;;;;;9.10;7.00;;;;;;;18.41;100.00;94696.59;5152746;27;20208;-44
2023/09/22 03:14:49;;;;;;;13.63;7.43;;;;;;;18.41;100.00;94696.59;5152903;27;20191;-45
2023/09/22 03:17:15;;;;;;;14.13;7.47;;;;;;;18.38;100.00;94685.81;5152590;27;20212;-43
2023/09/22 03:19:42;;;;;;;12.07;7.33;;;;;;;18.34;100.00;94703.50;5152833;27;20199;-45
2023/09/22 03:22:10;;;;;;;9.30;7.10;;;;;;;18.34;100.00;94693.13;5152858;27;20196;-44
2023/09/22 03:24:37;;;;;;;7.87;6.57;;;;;;;18.31;100.00;94690.94;5152593;27;20660;-47
2023/09/22 03:27:04;;;;;;;10.27;6.97;;;;;;;18.29;100.00;94690.31;5152452;27;20227;-44
2023/09/22 03:29:31;;;;;;;13.53;7.37;;;;;;;18.26;100.00;94691.50;5152710;27;20202;-46
2023/09/22 03:31:57;;;;;;;11.00;7.50;;;;;;;18.26;100.00;94694.09;5152292;27;20215;-45
2023/09/22 03:34:24;;;;;;;12.10;6.37;;;;;;;18.22;100.00;94692.03;5153042;27;20195;-44
2023/09/22 03:36:51;;;;;;;7.87;6.20;;;;;;;18.21;100.00;94687.84;5152756;27;20195;-45
2023/09/22 03:39:22;;;;;;;11.03;6.87;;;;;;;18.17;100.00;94682.22;5152855;27;20306;-45
2023/09/22 03:41:52;;;;;;;15.07;6.93;;;;;;;18.17;100.00;94679.63;5152554;27;20737;-45
2023/09/22 03:44:19;;;;;;;9.07;5.93;;;;;;;18.13;100.00;94675.00;5160784;27;20235;-44
2023/09/22 03:46:46;;;;;;;9.63;5.90;;;;;;;18.12;100.00;94676.00;5173299;27;20193;-44
2023/09/22 03:49:13;;;;;;;11.70;6.00;;;;;;;18.06;100.00;94674.97;5172100;27;20294;-45
2023/09/22 03:51:40;;;;;;;7.33;6.07;;;;;;;18.02;100.00;94677.13;5173587;27;20259;-45
2023/09/22 03:54:08;;;;;;;13.87;6.60;;;;;;;18.00;100.00;94681.69;5172849;27;20191;-45
2023/09/22 03:56:38;;;;;;;7.47;6.13;;;;;;;17.99;100.00;94679.25;5173227;27;20643;-45
2023/09/22 03:59:05;;;;;;;10.73;5.87;;;;;;;17.98;100.00;94680.25;5152048;27;20688;-44
2023/09/22 04:01:32;;;;;;;9.00;6.10;;;;;;;17.93;100.00;94669.66;5151827;27;20213;-43
2023/09/22 04:04:00;;;;;;;7.03;5.87;;;;;;;17.95;100.00;94673.66;5152048;27;20187;-44
2023/09/22 04:06:27;;;;;;;12.43;6.33;;;;;;;17.95;100.00;94683.19;5151914;27;20270;-44
2023/09/22 04:08:54;;;;;;;10.00;5.43;;;;;;;17.93;100.00;94688.56;5151626;27;20183;-44
2023/09/22 04:11:21;;;;;;;15.43;5.80;;;;;;;17.91;100.00;94675.00;5152015;27;20195;-44
2023/09/22 04:13:49;;;;;;;11.43;5.17;;;;;;;17.88;100.00;94683.16;5151667;27;20226;-47
2023/09/22 04:16:16;;;;;;;13.97;5.17;;;;;;;17.90;100.00;94688.13;5151787;27;20639;-45
2023/09/22 04:18:42;;;;;;;8.07;5.27;;;;;;;17.88;100.00;94690.91;5151669;27;20188;-44
2023/09/22 04:21:09;;;;;;;9.57;5.37;;;;;;;17.85;100.00;94678.31;5160477;27;20187;-45
2023/09/22 04:23:36;;;;;;;8.27;4.57;;;;;;;17.89;100.00;94689.91;5172931;27;20191;-45
2023/09/22 04:26:09;;;;;;;8.27;4.87;;;;;;;17.91;100.00;94687.13;5172033;27;20218;-45
2023/09/22 04:28:36;;;;;;;7.23;4.90;;;;;;;17.73;100.00;94662.44;5172099;27;20179;-45
2023/09/22 04:31:05;;;;;;;7.27;4.40;;;;;;;17.88;100.00;94688.31;5163624;27;20176;-45
2023/09/22 04:33:32;;;;;;;6.47;4.47;;;;;;;17.88;100.00;94692.69;5151727;27;20228;-46
2023/09/22 04:35:59;;;;;;;6.50;4.43;;;;;;;17.88;100.00;94703.84;5151586;27;20188;-45
2023/09/22 04:38:26;;;;;;;5.37;4.23;;;;;;;17.89;100.00;94692.50;5151509;27;20210;-45
2023/09/22 04:40:57;;;;;;;8.30;4.23;;;;;;;17.94;100.00;94694.53;5151456;27;20288;-44
2023/09/22 04:43:24;;;;;;;9.83;5.17;;;;;;;17.95;100.00;94696.13;5151622;27;20190;-46
2023/09/22 04:45:52;;;;;;;11.50;4.80;;;;;;;18.00;100.00;94697.22;5151188;27;20220;-45
2023/09/22 04:48:22;;;;;;;9.70;4.70;;;;;;;18.01;100.00;94696.22;5168865;27;20666;-45
2023/09/22 04:50:54;;;;;;;11.93;5.93;;;;;;;18.07;100.00;94697.28;5166783;27;20386;-43
2023/09/22 04:53:21;;;;;;;9.27;5.20;;;;;;;18.12;100.00;94697.50;5151441;27;20322;-45
2023/09/22 04:55:48;;;;;;;7.20;5.00;;;;;;;18.17;100.00;94694.38;5150993;27;20198;-45
2023/09/22 04:58:16;;;;;;;9.87;5.73;;;;;;;18.21;100.00;94693.03;5151236;27;20211;-45
2023/09/22 05:00:43;;;;;;;10.87;5.37;;;;;;;18.28;100.00;94692.09;5150493;27;20216;-44
2023/09/22 05:03:10;;;;;;;16.33;5.73;;;;;;;18.37;100.00;94703.13;5155359;27;20197;-45
2023/09/22 05:05:38;;;;;;;11.90;5.27;;;;;;;18.50;100.00;94690.31;5160548;27;20180;-45
2023/09/22 05:08:06;;;;;;;9.80;5.13;;;;;;;18.60;100.00;94707.31;5150963;27;20250;-46
2023/09/22 05:10:33;;;;;;;10.73;5.67;;;;;;;18.71;100.00;94702.47;5152340;27;20219;-45
2023/09/22 05:13:01;;;;;;;9.13;4.97;;;;;;;18.93;100.00;94700.63;5161934;27;20211;-45
2023/09/22 05:15:28;;;;;;;10.17;5.20;;;;;;;19.13;100.00;94705.97;5137696;27;20229;-44
2023/09/22 05:17:55;;;;;;;8.73;5.03;;;;;;;19.31;100.00;94702.88;5150892;27;20206;-45
2023/09/22 05:20:24;;;;;;;12.50;5.20;;;;;;;19.58;100.00;94706.41;5150995;27;20652;-44
2023/09/22 05:22:52;;;;;;;9.57;5.57;;;;;;;19.77;100.00;94716.09;5150571;27;20199;-45
2023/09/22 05:25:19;;;;;;;8.00;4.60;;;;;;;19.91;100.00;94723.94;5150618;27;20195;-45
2023/09/22 05:27:46;;;;;;;11.53;4.77;;;;;;;19.99;100.00;94727.16;5150850;27;20203;-44
2023/09/22 05:30:16;;;;;;;9.38;4.78;;;;;;;20.14;100.00;94729.59;5151371;27;20580;-43
2023/09/22 05:32:43;;;;;;;12.85;4.43;;;;;;;20.18;98.84;94741.19;5150849;27;20215;-44
2023/09/22 05:35:10;;;;;;;10.87;4.57;;;;;;;20.16;97.39;94726.78;5150901;27;20192;-44
2023/09/22 05:37:37;;;;;;;8.20;4.68;;;;;;;20.34;97.39;94742.63;5150730;27;20667;-44
2023/09/22 05:40:12;;;;;;;9.50;4.82;;;;;;;20.48;97.52;94749.47;5150727;27;20671;-54
2023/09/22 05:42:39;;;;;;;11.27;4.93;;;;;;;20.71;96.82;94746.50;5151308;27;20180;-47
2023/09/22 05:45:07;;;;;;;11.63;5.03;;;;;;;20.84;96.23;94740.50;5152642;27;20674;-45
2023/09/22 05:47:35;;;;;;;12.65;6.07;;;;;;;20.95;97.00;94734.72;5151469;27;20187;-47
2023/09/22 05:50:02;;;;;;;10.23;5.85;;;;;;;21.08;95.99;94736.53;5150814;27;20278;-43
2023/09/22 05:52:29;;;;;;;9.48;5.03;;;;;;;21.24;96.48;94748.28;5162347;27;20215;-46
2023/09/22 05:54:56;;;;;;;9.77;5.53;;;;;;;21.51;94.80;94731.66;5150700;27;20195;-45
2023/09/22 05:57:24;;;;;;;9.52;6.53;;;;;;;21.65;91.72;94742.84;5150633;27;20191;-45
2023/09/22 05:59:51;;;;;;;11.18;7.03;;;;;;;21.58;92.02;94743.84;5154255;27;20176;-46
2023/09/22 06:02:19;;;;;;;10.00;7.30;;;;;;;21.64;92.92;94736.03;5151875;27;20187;-46
2023/09/22 06:04:46;;;;;;;10.40;7.30;;;;;;;21.82;92.90;94743.19;5150595;27;20599;-46
2023/09/22 06:07:14;;;;;;;16.15;7.72;;;;;;;21.98;92.08;94741.94;5151335;27;20195;-46
2023/09/22 06:09:41;;;;;;;20.05;7.88;;;;;;;22.16;91.27;94744.69;5167385;27;20191;-45
2023/09/22 06:12:08;;;;;;;15.98;8.45;;;;;;;22.28;90.07;94743.03;5171361;27;20190;-44
2023/09/22 06:14:36;;;;;;;14.70;9.45;;;;;;;22.45;90.18;94747.72;5174657;27;20310;-45
2023/09/22 06:17:03;;;;;;;12.30;8.68;;;;;;;22.52;89.80;94745.88;5174720;27;20175;-45
2023/09/22 06:19:29;;;;;;;14.07;8.15;;;;;;;22.77;88.96;94748.53;5174778;27;20186;-44
2023/09/22 06:21:56;;;;;;;10.38;7.57;;;;;;;22.88;85.70;94755.66;5167979;27;20232;-46
2023/09/22 06:24:23;;;;;;;15.55;8.65;;;;;;;22.86;86.83;94762.09;5153523;27;20303;-44
2023/09/22 06:26:50;;;;;;;14.00;8.20;;;;;;;22.92;85.66;94759.47;5153784;27;20223;-45
2023/09/22 06:29:18;;;;;;;13.93;8.07;;;;;;;23.01;85.25;94760.81;5154253;27;20187;-43
2023/09/22 06:31:46;;;;;;;15.30;7.93;;;;;;;23.26;84.74;94765.22;5166009;27;20183;-45
2023/09/22 06:34:13;;;;;;;16.13;7.95;;;;;;;23.47;83.13;94759.59;5153960;27;20590;-45
2023/09/22 06:36:40;;;;;;;14.77;8.30;;;;;;;23.49;82.16;94768.03;5153382;27;20395;-46
2023/09/22 06:39:08;;;;;;;14.13;8.07;;;;;;;23.59;82.25;94769.34;5153672;27;20256;-44
2023/09/22 06:41:36;;;;;;;11.93;9.00;;;;;;;23.75;82.66;94776.63;5153546;27;20201;-44
2023/09/22 06:44:04;;;;;;;13.25;9.23;;;;;;;23.85;81.99;94778.72;5153571;27;20191;-46
2023/09/22 06:46:35;;;;;;;15.82;9.05;;;;;;;23.96;81.69;94776.19;5153689;27;20180;-45
2023/09/22 06:49:07;;;;;;;14.20;9.15;;;;;;;24.04;80.78;94781.09;5156679;27;20179;-46
2023/09/22 06:51:36;;;;;;;12.13;8.90;;;;;;;24.10;80.26;94776.84;5164135;27;20545;-44
2023/09/22 06:54:04;;;;;;;22.52;9.68;;;;;;;24.26;79.52;94785.88;5153171;27;20635;-44
2023/09/22 06:56:30;;;;;;;19.45;9.40;;;;;;;24.42;78.18;94782.69;5165331;27;20180;-45
2023/09/22 06:58:57;;;;;;;11.30;8.10;;;;;;;24.31;78.55;94790.44;5153862;27;20527;-43
2023/09/22 07:01:24;;;;;;;20.88;8.30;;;;;;;24.32;78.18;94790.25;5153005;27;20588;-45
2023/09/22 07:03:51;;;;;;;13.88;9.60;;;;;;;24.49;78.27;94796.47;5153164;27;20251;-46
2023/09/22 07:06:19;;;;;;;12.27;9.25;;;;;;;24.59;76.67;94784.69;5152676;27;20199;-44
2023/09/22 07:08:48;;;;;;;10.57;8.20;;;;;;;24.51;77.27;94793.63;5153161;27;20207;-44
2023/09/22 07:11:15;;;;;;;14.63;8.43;;;;;;;24.60;77.18;94796.72;5152707;27;20278;-46
2023/09/22 07:13:42;;;;;;;14.65;8.70;;;;;;;24.83;75.09;94794.22;5152918;27;20266;-46
2023/09/22 07:16:09;;;;;;;14.70;9.65;;;;;;;24.95;74.01;94794.22;5152743;27;20180;-45
2023/09/22 07:18:36;;;;;;;14.27;9.35;;;;;;;24.93;73.68;94763.06;5153155;27;20196;-44
2023/09/22 07:21:03;;;;;;;16.95;9.52;;;;;;;25.18;73.35;94791.69;5152543;27;20207;-44
2023/09/22 07:23:32;;;;;;;16.42;9.48;;;;;;;25.27;73.15;94787.72;5152068;27;20679;-43
2023/09/22 07:25:59;;;;;;;13.88;8.90;;;;;;;25.49;72.31;94795.81;5151914;27;20229;-43
2023/09/22 07:28:27;;;;;;;18.23;9.27;;;;;;;25.71;70.58;94785.53;5155035;27;20246;-46
2023/09/22 07:30:54;;;;;;;11.57;9.45;;;;;;;26.02;68.14;94794.06;5168345;27;20183;-45
2023/09/22 07:33:21;;;;;;;14.82;7.93;;;;;;;26.28;67.61;94788.28;5173107;27;20215;-45
2023/09/22 07:35:50;;;;;;;11.50;6.70;;;;;;;26.60;66.59;94794.94;5172759;27;20616;-45
2023/09/22 07:38:18;;;;;;;15.60;7.22;;;;;;;26.84;63.99;94791.16;5172168;27;20183;-45
2023/09/22 07:40:47;;;;;;;11.35;6.43;;;;;;;26.77;63.39;94780.84;5154062;27;20278;-45
2023/09/22 07:43:14;;;;;;;16.38;7.30;;;;;;;26.98;63.64;94789.03;5171026;27;20619;-44
2023/09/22 07:45:40;;;;;;;13.05;5.78;;;;;;;27.22;62.29;94790.50;5172204;27;20183;-45
2023/09/22 07:48:09;;;;;;;8.77;5.00;;;;;;;27.31;60.73;94796.16;5153069;27;20183;-45
2023/09/22 07:51:06;;;;;;;12.85;4.88;;;;;;;27.46;59.31;94788.53;5151540;27;20200;-45
2023/09/22 07:53:33;;;;;;;12.40;5.00;;;;;;;27.63;59.72;94790.31;5107904;28;20287;-46
2023/09/22 07:56:02;;;;;;;12.75;5.28;;;;;;;27.82;59.17;94777.75;5108589;28;20193;-44
2023/09/22 07:58:32;;;;;;;13.48;4.50;;;;;;;27.87;56.89;94790.94;5108389;28;20189;-45
2023/09/22 08:01:00;;;;;;;13.40;5.30;;;;;;;27.74;57.91;94790.25;5094062;28;20193;-45
2023/09/22 08:03:27;;;;;;;9.38;4.28;;;;;;;27.78;57.15;94787.16;5100602;28;20254;-45
2023/09/22 08:05:53;;;;;;;10.63;4.55;;;;;;;27.91;56.36;94792.03;5108710;27;20200;-44
2023/09/22 08:08:20;;;;;;;8.73;4.63;;;;;;;28.06;56.22;94788.81;5107863;27;20196;-45
2023/09/22 08:10:47;;;;;;;8.55;4.65;;;;;;;28.13;56.69;94790.22;5113062;27;20679;-44
2023/09/22 08:13:15;;;;;;;12.18;4.63;;;;;;;28.19;55.83;94776.06;5151614;27;20203;-46
2023/09/22 08:15:42;;;;;;;8.80;4.85;;;;;;;28.14;55.42;94786.53;5151726;27;20200;-45
2023/09/22 08:18:10;;;;;;;10.13;4.68;;;;;;;28.12;56.29;94783.38;5151706;27;20183;-47
2023/09/22 08:20:37;;;;;;;9.43;4.93;;;;;;;28.34;56.28;94790.47;5151859;27;20200;-47
2023/09/22 08:23:04;;;;;;;8.18;4.57;;;;;;;28.52;55.46;94784.91;5151991;27;20180;-46
2023/09/22 08:25:31;;;;;;;8.75;4.63;;;;;;;28.64;55.56;94787.41;5151575;27;20282;-46
2023/09/22 08:27:58;;;;;;;8.90;5.00;;;;;;;28.58;53.33;94767.31;5151469;27;20195;-47
2023/09/22 08:30:27;;;;;;;6.18;3.85;;;;;;;28.70;53.57;94784.53;5151354;27;20699;-47
2023/09/22 08:32:54;;;;;;;10.25;4.22;;;;;;;28.67;53.25;94774.53;5151457;27;20279;-47
2023/09/22 08:35:21;;;;;;;5.60;4.35;;;;;;;28.75;53.83;94775.91;5151008;27;20326;-45
2023/09/22 08:37:49;;;;;;;11.25;5.13;;;;;;;28.72;54.71;94769.31;5153045;27;20708;-48
2023/09/22 08:40:17;;;;;;;12.48;5.07;;;;;;;28.84;54.98;94774.41;5153111;27;20642;-45
2023/09/22 08:42:45;;;;;;;8.73;4.95;;;;;;;28.99;53.81;94766.69;5152954;27;20188;-52
2023/09/22 08:45:13;;;;;;;9.68;4.82;;;;;;;29.04;53.30;94767.78;5151331;27;20192;-48
2023/09/22 08:47:45;;;;;;;12.07;4.40;;;;;;;29.01;52.54;94761.16;5151321;27;20564;-46
2023/09/22 08:50:13;;;;;;;13.55;4.63;;;;;;;28.92;53.18;94752.88;5151074;27;20184;-46
2023/09/22 08:52:40;;;;;;;9.07;4.85;;;;;;;28.98;52.89;94756.41;5151494;27;20196;-47
2023/09/22 08:55:13;;;;;;;10.52;4.88;;;;;;;28.91;53.68;94755.78;5151129;27;20227;-45
2023/09/22 08:57:44;;;;;;;12.52;4.43;;;;;;;28.81;54.28;94751.22;5150961;27;20270;-47
2023/09/22 09:00:18;;;;;;;14.02;4.78;;;;;;;28.87;53.83;94744.94;5150917;27;20183;-46
2023/09/22 09:02:47;;;;;;;11.38;5.88;;;;;;;28.84;53.56;94748.06;5151116;27;20252;-47
2023/09/22 09:05:21;;;;;;;11.82;4.70;;;;;;;28.77;54.13;94734.34;5150724;27;20191;-47
2023/09/22 09:07:50;;;;;;;11.18;4.22;;;;;;;28.87;53.88;94739.69;5151097;27;20195;-46
2023/09/22 09:10:27;;;;;;;7.85;4.68;;;;;;;28.78;53.82;94733.28;5150964;27;20187;-46
2023/09/22 09:12:54;;;;;;;9.77;4.75;;;;;;;28.80;53.81;94733.84;5150986;27;20652;-46
2023/09/22 09:15:25;;;;;;;11.82;5.38;;;;;;;28.80;54.17;94730.41;5150756;27;20211;-45
2023/09/22 09:18:04;;;;;;;11.82;4.75;;;;;;;28.61;53.60;94707.09;5151155;27;20203;-49
2023/09/22 09:20:32;;;;;;;12.23;4.50;;;;;;;28.72;54.01;94729.84;5151313;27;20203;-47
2023/09/22 09:23:00;;;;;;;15.52;4.85;;;;;;;28.36;54.17;94670.81;5152035;27;20203;-49
2023/09/22 09:25:29;;;;;;;11.55;4.85;;;;;;;28.68;54.60;94725.31;5151552;27;20627;-47
2023/09/22 09:28:02;;;;;;;10.23;4.43;;;;;;;28.60;54.68;94716.03;5151717;27;20175;-47
2023/09/22 09:30:31;;;;;;;10.48;5.13;;;;;;;28.60;54.58;94717.88;5150770;27;20654;-48
2023/09/22 09:33:10;;;;;;;12.35;5.28;;;;;;;28.59;53.96;94709.19;5150781;27;20196;-47
2023/09/22 09:35:39;;;;;;;9.45;4.78;;;;;;;28.51;54.70;94704.38;5150619;27;20242;-46
2023/09/22 09:38:08;;;;;;;15.63;5.55;;;;;;;28.46;54.99;94705.13;5151049;27;20180;-46
2023/09/22 09:40:37;;;;;;;9.52;4.97;;;;;;;28.48;54.65;94702.22;5150891;27;20196;-48
2023/09/22 09:43:10;;;;;;;9.98;4.72;;;;;;;28.45;55.16;94702.72;5151022;27;20175;-46
2023/09/22 09:45:44;;;;;;;8.90;4.57;;;;;;;28.47;55.81;94695.38;5150452;27;20196;-48
2023/09/22 09:48:17;;;;;;;9.82;4.93;;;;;;;28.45;55.03;94690.38;5152568;27;20200;-46
2023/09/22 09:50:48;;;;;;;12.77;5.18;;;;;;;28.14;55.50;94626.13;5154358;27;20589;-48
2023/09/22 09:53:23;;;;;;;15.10;5.03;;;;;;;28.44;55.96;94695.88;5154492;27;20642;-47
2023/09/22 09:55:53;;;;;;;14.65;5.13;;;;;;;28.35;55.94;94676.28;5154655;27;20195;-46
2023/09/22 09:58:22;;;;;;;5.82;4.63;;;;;;;28.47;56.31;94692.75;5154331;27;20269;-46
2023/09/22 10:00:50;;;;;;;11.98;4.55;;;;;;;28.47;55.31;94688.28;5154541;27;20219;-48
2023/09/22 10:03:21;;;;;;;15.25;5.00;;;;;;;28.49;55.30;94688.03;5154370;27;20213;-48
2023/09/22 10:05:51;;;;;;;13.30;5.22;;;;;;;28.53;54.30;94678.59;5154610;27;20176;-47
2023/09/22 10:08:20;;;;;;;15.90;7.18;;;;;;;28.56;55.13;94687.84;5154511;27;20270;-48
2023/09/22 10:10:49;;;;;;;7.95;4.93;;;;;;;28.59;54.62;94693.41;5153798;27;20921;-48
2023/09/22 10:13:15;;;;;;;13.80;5.18;;;;;;;28.59;54.70;94688.13;5154087;27;20188;-46
2023/09/22 10:16:03;;;;;;;12.23;5.47;;;;;;;28.55;53.84;94687.03;5153732;27;20714;-46
2023/09/22 10:18:48;;;;;;;11.48;4.90;;;;;;;28.60;52.73;94683.66;5153874;27;20609;-47
2023/09/22 10:21:35;;;;;;;12.52;5.25;;;;;;;28.52;52.73;94676.22;5153924;27;20256;-46
2023/09/22 10:24:15;;;;;;;9.52;4.40;;;;;;;28.42;53.41;94664.56;5154033;27;20188;-47
2023/09/22 10:27:08;;;;;;;8.90;4.47;;;;;;;28.50;52.63;94677.28;5153716;27;20281;-44
2023/09/22 10:29:41;;;;;;;14.02;4.97;;;;;;;28.50;52.70;94664.13;5153740;27;20215;-47
2023/09/22 10:32:35;;;;;;;10.85;5.63;;;;;;;28.61;52.21;94658.94;5153360;27;20187;-48
2023/09/22 10:35:06;;;;;;;11.63;5.13;;;;;;;28.63;52.40;94656.84;5153896;27;20326;-48
2023/09/22 10:37:35;;;;;;;9.88;4.28;;;;;;;28.71;52.03;94664.25;5153571;27;20271;-46
2023/09/22 10:40:11;;;;;;;11.23;5.47;;;;;;;28.73;52.40;94651.66;5153707;27;20198;-47
2023/09/22 10:42:42;;;;;;;16.52;5.05;;;;;;;28.68;52.34;94643.72;5153265;27;20686;-45
2023/09/22 10:45:10;;;;;;;13.50;5.00;;;;;;;28.68;52.73;94654.25;5153519;27;20271;-46
2023/09/22 10:47:41;;;;;;;17.13;5.68;;;;;;;28.71;52.78;94645.84;5153633;27;20180;-46
2023/09/22 10:50:17;;;;;;;14.77;5.70;;;;;;;28.71;52.19;94628.22;5153530;27;20567;-45
2023/09/22 10:52:51;;;;;;;11.93;4.97;;;;;;;28.78;52.18;94629.84;5153429;27;20198;-47
2023/09/22 10:55:30;;;;;;;13.80;4.63;;;;;;;28.60;51.89;94594.97;5153082;27;20253;-44
2023/09/22 10:57:58;;;;;;;11.75;5.00;;;;;;;28.83;51.76;94622.75;5153296;27;20183;-46
2023/09/22 11:00:26;;;;;;;13.25;6.05;;;;;;;28.90;52.17;94623.34;5152712;27;20188;-45
2023/09/22 11:02:53;;;;;;;12.02;5.95;;;;;;;28.99;51.78;94631.59;5153200;27;20207;-46
2023/09/22 11:05:21;;;;;;;15.10;4.93;;;;;;;29.02;51.43;94641.63;5153204;27;20199;-47
2023/09/22 11:07:51;;;;;;;14.38;5.00;;;;;;;29.05;50.47;94624.50;5152990;27;20237;-46
2023/09/22 11:10:19;;;;;;;12.00;5.25;;;;;;;29.08;50.53;94624.00;5152944;27;20591;-48
2023/09/22 11:12:50;;;;;;;14.32;4.93;;;;;;;28.99;50.69;94598.16;5152462;27;20223;-47
2023/09/22 11:15:17;;;;;;;16.90;5.25;;;;;;;29.20;50.67;94606.94;5153008;27;20219;-46
2023/09/22 11:17:46;;;;;;;17.73;5.55;;;;;;;29.19;51.03;94602.75;5152396;27;20194;-45
2023/09/22 11:20:18;;;;;;;12.98;4.47;;;;;;;29.04;51.18;94575.53;5152879;27;20223;-46
2023/09/22 11:22:47;;;;;;;10.35;5.38;;;;;;;29.19;50.82;94588.78;5152523;27;20191;-46
2023/09/22 11:25:14;;;;;;;21.48;4.70;;;;;;;29.20;50.25;94599.03;5152594;27;20191;-46
2023/09/22 11:27:47;;;;;;;12.68;5.22;;;;;;;29.24;50.45;94594.84;5152240;27;20283;-48
2023/09/22 11:30:16;;;;;;;11.15;5.10;;;;;;;29.20;50.65;94595.63;5152651;27;20183;-47